Time;durP1;ratioP1;P1;durP2;ratioP2;P2;SDS_P1;SDS_P2;PMS_P1;PMS_P2;Temp;Humidity;BMP_temperature;BMP_pressure;BME280_temperature;BME280_humidity;BME280_pressure;Samples;Min_cycle;Max_cycle;Signal;HPM_P1;HPM_P2
2023/10/10 00:02:06;;;;;;;206.88;198.30;;;;;;;20.17;59.11;101990.13;5020170;28;20111;-72
2023/10/10 00:04:33;;;;;;;210.65;201.85;;;;;;;20.17;58.88;101990.13;5023775;28;20029;-72
2023/10/10 00:07:07;;;;;;;210.25;201.50;;;;;;;20.17;58.87;101997.53;5039299;28;20457;-72
2023/10/10 00:09:33;;;;;;;206.90;198.30;;;;;;;20.16;58.53;102001.38;5027036;28;20038;-72
2023/10/10 00:11:58;;;;;;;207.23;198.63;;;;;;;20.15;58.84;102006.03;5023853;28;20380;-71
2023/10/10 00:14:27;;;;;;;204.38;195.82;;;;;;;20.14;58.98;101998.09;5017398;28;20088;-72
2023/10/10 00:16:59;;;;;;;;;;;;;;;20.14;58.73;102003.59;5022717;28;20041;-74
2023/10/10 00:19:37;;;;;;;198.68;190.18;;;;;;;20.11;58.41;101994.00;5030267;28;19912;-72
2023/10/10 00:22:05;;;;;;;207.52;198.82;;;;;;;20.10;58.37;102000.56;5031021;28;20029;-72
2023/10/10 00:24:31;;;;;;;203.10;194.50;;;;;;;20.08;58.92;101991.78;5023354;28;20029;-72
2023/10/10 00:26:59;;;;;;;203.07;194.55;;;;;;;20.06;58.31;101996.75;5024651;28;20033;-73
2023/10/10 00:29:26;;;;;;;202.88;193.75;;;;;;;20.05;58.33;101990.41;5025845;28;20046;-71
2023/10/10 00:31:57;;;;;;;201.95;193.65;;;;;;;20.04;58.89;101996.19;5016747;28;20030;-72
2023/10/10 00:34:33;;;;;;;206.63;197.93;;;;;;;20.03;58.59;101995.38;5021766;28;20442;-73
2023/10/10 00:37:07;;;;;;;206.05;197.52;;;;;;;20.01;58.83;101988.53;5021529;28;20091;-73
2023/10/10 00:39:35;;;;;;;202.40;193.82;;;;;;;20.00;58.37;101989.59;5023621;28;20090;-72
2023/10/10 00:42:05;;;;;;;205.67;197.03;;;;;;;19.99;58.79;101991.53;5026872;28;20033;-72
2023/10/10 00:44:31;;;;;;;204.50;195.75;;;;;;;19.98;58.42;101991.78;5024715;28;20492;-72
2023/10/10 00:46:58;;;;;;;208.60;200.10;;;;;;;19.96;58.78;101993.97;5015817;28;20141;-72
2023/10/10 00:49:31;;;;;;;209.63;200.70;;;;;;;19.95;58.67;101984.13;5026677;28;20040;-71
2023/10/10 00:52:01;;;;;;;204.18;195.68;;;;;;;19.94;58.41;101987.97;5023299;28;20114;-71
2023/10/10 00:54:31;;;;;;;205.13;196.43;;;;;;;19.93;58.28;101980.84;5021798;28;20038;-71
2023/10/10 00:56:57;;;;;;;202.10;193.52;;;;;;;19.91;58.64;101969.31;5021982;28;20030;-71
2023/10/10 00:59:35;;;;;;;210.75;201.63;;;;;;;19.89;58.69;101967.69;5053649;28;20052;-74
2023/10/10 01:02:04;;;;;;;205.95;197.05;;;;;;;19.88;58.90;101967.94;5025996;28;20030;-71
2023/10/10 01:04:55;;;;;;;206.82;198.18;;;;;;;19.87;58.50;101958.09;5018152;28;20036;-71
2023/10/10 01:07:21;;;;;;;200.65;192.35;;;;;;;19.84;58.75;101958.63;5016273;28;20390;-71
2023/10/10 01:12:20;;;;;;;203.50;194.75;;;;;;;19.80;58.76;101955.59;5020378;28;20390;-71
2023/10/10 01:14:45;;;;;;;199.13;190.43;;;;;;;19.80;58.30;101955.59;5028827;28;20025;-71
2023/10/10 01:17:12;;;;;;;200.80;192.43;;;;;;;19.78;58.58;101952.34;5022510;28;20447;-71
2023/10/10 01:19:38;;;;;;;201.52;193.02;;;;;;;19.77;58.88;101958.91;5019960;28;20032;-71
2023/10/10 01:22:22;;;;;;;198.25;189.65;;;;;;;19.75;58.71;101955.63;5023460;28;20033;-71
2023/10/10 01:24:51;;;;;;;200.13;191.38;;;;;;;19.73;58.32;101946.88;5021163;28;20040;-71
2023/10/10 01:27:21;;;;;;;197.98;189.50;;;;;;;19.73;58.23;101946.03;5021329;28;20029;-70
2023/10/10 01:30:17;;;;;;;200.52;191.43;;;;;;;19.71;58.78;101940.84;5025314;28;20032;-70
2023/10/10 01:32:45;;;;;;;194.30;186.10;;;;;;;19.69;58.69;101948.50;5022070;28;20030;-71
2023/10/10 01:35:16;;;;;;;199.68;191.10;;;;;;;19.66;58.76;101938.88;5025007;28;20033;-71
2023/10/10 01:37:41;;;;;;;200.30;191.60;;;;;;;19.65;58.79;101939.13;5024301;28;20112;-72
2023/10/10 01:40:28;;;;;;;200.50;192.07;;;;;;;19.63;58.60;101933.94;5022525;28;20552;-72
2023/10/10 01:42:54;;;;;;;196.23;187.82;;;;;;;19.61;58.50;101927.91;5017257;28;20029;-71
2023/10/10 01:45:20;;;;;;;200.18;191.45;;;;;;;19.61;58.55;101929.84;5020716;28;20033;-71
2023/10/10 01:48:02;;;;;;;196.40;187.93;;;;;;;19.58;58.39;101922.16;5026860;28;20099;-71
2023/10/10 01:50:30;;;;;;;199.07;190.45;;;;;;;19.56;58.59;101913.41;5020994;28;20038;-72
2023/10/10 01:53:00;;;;;;;193.90;185.68;;;;;;;19.55;58.82;101914.47;5021827;28;20446;-71
2023/10/10 01:55:25;;;;;;;201.23;192.25;;;;;;;19.53;58.26;101913.94;5026276;28;20072;-71
2023/10/10 01:57:52;;;;;;;199.65;191.40;;;;;;;19.51;58.62;101910.66;5028035;28;20064;-71
2023/10/10 02:00:25;;;;;;;199.55;190.85;;;;;;;19.49;58.76;101902.69;5024942;28;20033;-71
2023/10/10 02:02:53;;;;;;;197.93;189.10;;;;;;;19.49;58.51;101907.38;5024195;28;20411;-71
2023/10/10 02:08:09;;;;;;;195.18;187.02;;;;;;;19.44;58.32;101892.56;5027271;28;20104;-72
2023/10/10 02:10:43;;;;;;;195.45;187.15;;;;;;;19.42;58.68;101892.00;5022322;28;20098;-72
2023/10/10 02:13:11;;;;;;;195.20;186.35;;;;;;;19.41;58.29;101890.38;5025833;28;20037;-71
2023/10/10 02:15:39;;;;;;;196.07;187.63;;;;;;;19.41;58.74;101895.03;5019390;28;20033;-71
2023/10/10 02:18:12;;;;;;;196.02;187.75;;;;;;;19.39;58.60;101889.00;5033537;28;20034;-71
2023/10/10 02:31:41;;;;;;;198.60;190.00;;;;;;;19.28;58.72;101879.97;5024021;28;20048;-71
2023/10/10 02:34:10;;;;;;;192.52;184.45;;;;;;;19.27;58.52;101883.78;5025031;28;20122;-71
2023/10/10 02:36:35;;;;;;;194.48;185.98;;;;;;;19.26;58.32;101881.34;5017559;28;20033;-72
2023/10/10 02:39:29;;;;;;;197.27;188.57;;;;;;;19.24;58.45;101882.41;5026690;28;20033;-71
2023/10/10 02:41:51;;;;;;;192.48;184.13;;;;;;;19.23;58.38;101878.03;5024655;28;20385;-72
2023/10/10 02:47:12;;;;;;;190.85;182.57;;;;;;;19.18;58.72;101864.34;5019903;28;20049;-72
2023/10/10 02:49:37;;;;;;;195.43;186.73;;;;;;;19.18;58.83;101874.50;5028739;28;20512;-73
2023/10/10 02:52:06;;;;;;;195.65;187.05;;;;;;;19.17;58.86;101864.59;5020774;28;20037;-72
2023/10/10 02:54:43;;;;;;;193.10;184.70;;;;;;;19.15;58.42;101873.13;5021100;28;20109;-72
2023/10/10 02:59:51;;;;;;;190.90;182.70;;;;;;;19.12;58.82;101868.16;5029160;28;20045;-72
2023/10/10 03:02:28;;;;;;;199.82;191.43;;;;;;;19.10;58.77;101867.63;5021254;28;20040;-72
2023/10/10 03:05:06;;;;;;;190.65;182.60;;;;;;;19.10;58.65;101869.53;5038821;28;20427;-72
2023/10/10 03:07:33;;;;;;;190.70;182.40;;;;;;;19.08;58.29;101869.00;5027830;28;20116;-72
2023/10/10 03:12:49;;;;;;;191.55;183.13;;;;;;;19.06;58.44;101865.72;5025641;28;20037;-72
2023/10/10 03:17:49;;;;;;;192.85;184.65;;;;;;;19.02;58.67;101869.00;5022559;28;20037;-72
2023/10/10 03:31:05;;;;;;;190.93;182.57;;;;;;;18.96;58.43;101881.03;5020049;28;20045;-72
2023/10/10 03:33:44;;;;;;;191.68;183.38;;;;;;;18.95;58.29;101889.50;5027297;28;20067;-72
2023/10/10 05:24:51;;;;;;;183.60;175.20;;;;;;;18.36;58.87;101814.88;5015953;28;20088;-72
2023/10/10 05:27:29;;;;;;;179.60;171.65;;;;;;;18.35;58.75;101816.00;5030589;28;20025;-74
2023/10/10 05:29:55;;;;;;;188.00;179.18;;;;;;;18.35;58.45;101809.72;5030390;28;20128;-73
2023/10/10 05:32:22;;;;;;;182.32;174.00;;;;;;;18.33;58.67;101815.44;5015918;28;20041;-73
2023/10/10 05:34:48;;;;;;;184.27;175.95;;;;;;;18.34;59.01;101813.50;5012098;28;20063;-72
2023/10/10 05:37:15;;;;;;;183.77;175.88;;;;;;;18.32;59.03;101813.81;5026707;28;20048;-73
2023/10/10 05:39:40;;;;;;;187.70;179.25;;;;;;;18.32;58.58;101815.69;5021643;28;20041;-71
2023/10/10 05:42:08;;;;;;;187.20;178.82;;;;;;;18.29;58.91;101808.84;5030838;28;20029;-71
2023/10/10 05:44:38;;;;;;;183.27;174.80;;;;;;;18.28;58.67;101806.41;5031143;28;20524;-70
2023/10/10 05:47:06;;;;;;;182.95;174.27;;;;;;;18.29;58.95;101813.50;5026283;28;20042;-71
2023/10/10 05:49:32;;;;;;;184.25;176.02;;;;;;;18.27;58.96;101804.72;5011965;28;20057;-72
2023/10/10 05:51:58;;;;;;;181.77;173.75;;;;;;;18.25;58.95;101804.22;5011560;28;20188;-72
2023/10/10 05:54:24;;;;;;;178.52;170.20;;;;;;;18.24;58.62;101802.53;5011547;28;20034;-72
2023/10/10 05:56:49;;;;;;;182.23;173.93;;;;;;;18.22;58.69;101794.63;5016248;28;20053;-72
2023/10/10 05:59:14;;;;;;;185.13;176.73;;;;;;;18.23;58.88;101795.44;5017157;28;20398;-72
2023/10/10 06:01:40;;;;;;;180.48;172.55;;;;;;;18.20;58.99;101796.81;5011813;28;20148;-72
2023/10/10 06:04:07;;;;;;;182.60;173.95;;;;;;;18.20;58.58;101799.53;5011186;28;20053;-73
2023/10/10 06:06:32;;;;;;;178.32;169.95;;;;;;;18.19;59.02;101792.41;5018963;28;20091;-72
2023/10/10 06:09:01;;;;;;;181.02;173.13;;;;;;;18.19;58.92;101805.25;5024934;28;20045;-72
2023/10/10 06:11:29;;;;;;;180.77;172.20;;;;;;;18.16;58.87;101792.94;5015753;28;20034;-72
2023/10/10 06:13:54;;;;;;;181.68;173.55;;;;;;;18.15;58.68;101791.31;5014944;28;20065;-72
2023/10/10 06:16:20;;;;;;;177.45;169.13;;;;;;;18.14;58.82;101789.66;5031934;28;20124;-72
2023/10/10 06:18:47;;;;;;;181.93;173.52;;;;;;;18.13;59.11;101793.50;5030855;28;20038;-73
2023/10/10 06:21:18;;;;;;;178.30;170.45;;;;;;;18.12;59.10;101789.94;5024323;28;20034;-72
2023/10/10 06:23:44;;;;;;;179.65;171.80;;;;;;;18.12;59.15;101791.84;5019748;28;20038;-73
2023/10/10 06:26:09;;;;;;;179.70;171.73;;;;;;;18.11;59.19;101792.94;5014993;28;20026;-72
2023/10/10 06:28:35;;;;;;;177.68;169.70;;;;;;;18.08;59.08;101783.34;5018419;28;20092;-72
2023/10/10 06:31:02;;;;;;;182.48;173.95;;;;;;;18.08;58.77;101788.00;5015081;28;20061;-72
2023/10/10 06:33:28;;;;;;;180.20;172.07;;;;;;;18.07;58.77;101783.63;5037559;28;20029;-72
2023/10/10 06:38:59;;;;;;;179.25;170.93;;;;;;;18.04;59.19;101790.47;5015091;28;20049;-71
2023/10/10 06:41:30;;;;;;;173.77;166.40;;;;;;;18.03;59.01;101793.44;5025516;28;20037;-72
2023/10/10 06:43:59;;;;;;;180.35;171.30;;;;;;;18.02;58.92;101808.22;5048863;28;20116;-71
2023/10/10 06:46:32;;;;;;;179.35;171.20;;;;;;;18.01;59.13;101801.91;5022504;28;20140;-72
2023/10/10 06:49:06;;;;;;;179.38;171.38;;;;;;;18.01;59.03;101795.63;5014608;28;20421;-73
2023/10/10 06:51:33;;;;;;;179.85;171.75;;;;;;;18.01;59.21;101795.63;5023687;28;20057;-71
2023/10/10 06:53:59;;;;;;;178.68;170.30;;;;;;;18.00;59.13;101799.47;5026507;28;20466;-71
2023/10/10 06:59:09;;;;;;;177.30;168.80;;;;;;;17.98;59.03;101783.31;5021964;28;20519;-72
2023/10/10 07:01:35;;;;;;;181.93;173.82;;;;;;;17.95;58.93;101781.94;5014709;28;20029;-72
2023/10/10 07:04:04;;;;;;;175.70;167.35;;;;;;;17.95;58.92;101786.59;5024643;28;20037;-73
2023/10/10 07:06:29;;;;;;;177.18;168.77;;;;;;;17.94;59.19;101780.31;5033792;28;20026;-73
2023/10/10 07:11:39;;;;;;;179.55;171.30;;;;;;;17.92;58.72;101774.28;5014169;28;20096;-72
2023/10/10 07:14:08;;;;;;;177.90;169.65;;;;;;;17.92;59.23;101774.28;5019777;28;20026;-73
2023/10/10 07:16:33;;;;;;;175.45;167.65;;;;;;;17.92;58.71;101768.00;5027311;28;20087;-73
2023/10/10 07:19:17;;;;;;;181.07;172.95;;;;;;;17.91;58.80;101767.16;5026316;28;20342;-73
2023/10/10 07:21:43;;;;;;;174.02;165.80;;;;;;;17.90;58.62;101773.72;5013957;28;20363;-73
2023/10/10 07:24:14;;;;;;;176.70;168.57;;;;;;;17.89;59.10;101766.63;5013782;28;20064;-73
2023/10/10 07:26:41;;;;;;;176.00;167.40;;;;;;;17.88;59.22;101764.94;5033466;28;20383;-73
2023/10/10 07:29:26;;;;;;;178.20;169.55;;;;;;;17.88;58.77;101764.13;5013848;28;20037;-73
2023/10/10 07:31:53;;;;;;;173.95;165.63;;;;;;;17.85;58.77;101762.75;5032387;28;20377;-73
2023/10/10 07:34:33;;;;;;;175.35;167.63;;;;;;;17.86;58.92;101769.03;5032419;28;20049;-71
2023/10/10 07:37:07;;;;;;;179.85;171.63;;;;;;;17.86;59.20;101767.13;5028381;28;20041;-73
2023/10/10 07:39:33;;;;;;;179.32;171.13;;;;;;;17.85;58.85;101770.16;5018990;28;20026;-74
2023/10/10 07:41:59;;;;;;;177.77;169.55;;;;;;;17.84;59.27;101769.31;5014397;28;20044;-72
2023/10/10 07:44:25;;;;;;;177.02;168.88;;;;;;;17.84;59.27;101772.06;5020902;28;20121;-73
2023/10/10 07:49:35;;;;;;;173.77;165.93;;;;;;;17.82;58.68;101776.16;5013780;28;20046;-73
2023/10/10 07:52:04;;;;;;;169.75;161.43;;;;;;;17.84;58.96;101779.41;5013235;28;20379;-73
2023/10/10 07:54:38;;;;;;;168.07;160.57;;;;;;;17.82;58.71;101779.69;5023922;28;20045;-73
2023/10/10 07:57:17;;;;;;;163.85;156.65;;;;;;;17.83;59.28;101777.78;5051716;28;20068;-73
2023/10/10 07:59:42;;;;;;;169.00;161.30;;;;;;;17.82;59.13;101778.88;5016193;28;20037;-72
2023/10/10 08:02:24;;;;;;;172.18;163.82;;;;;;;17.82;58.87;101776.16;5013289;28;20034;-73
2023/10/10 08:04:54;;;;;;;173.77;165.88;;;;;;;17.82;58.96;101781.63;5016831;28;20065;-73
2023/10/10 08:07:20;;;;;;;171.55;163.90;;;;;;;17.82;59.32;101784.34;5016227;28;20041;-73
2023/10/10 08:09:46;;;;;;;167.45;159.50;;;;;;;17.82;59.31;101785.16;5027705;28;20394;-73
2023/10/10 08:12:15;;;;;;;168.70;160.80;;;;;;;17.81;58.77;101779.94;5012937;28;20034;-73
2023/10/10 08:14:42;;;;;;;169.05;160.85;;;;;;;17.81;58.80;101778.03;5028132;28;20037;-73
2023/10/10 08:17:21;;;;;;;169.40;161.50;;;;;;;17.81;59.36;101780.78;5016045;28;20088;-73
2023/10/10 08:19:51;;;;;;;167.90;160.10;;;;;;;17.80;59.38;101781.88;5013083;28;20422;-72
2023/10/10 08:22:25;;;;;;;170.95;163.18;;;;;;;17.80;58.97;101781.06;5021448;28;20087;-74
2023/10/10 08:24:53;;;;;;;168.32;160.77;;;;;;;17.79;59.04;101779.34;5018147;28;20707;-73
2023/10/10 08:27:22;;;;;;;177.20;168.35;;;;;;;17.79;59.38;101782.94;5021910;28;20052;-73
2023/10/10 08:29:50;;;;;;;165.52;158.00;;;;;;;17.78;59.45;101781.28;5020262;28;20454;-73
2023/10/10 08:32:15;;;;;;;171.63;163.88;;;;;;;17.79;59.29;101779.34;5012357;28;20449;-72
2023/10/10 08:34:42;;;;;;;170.48;161.98;;;;;;;17.78;59.45;101783.19;5016134;28;20478;-73
2023/10/10 08:37:09;;;;;;;166.27;159.13;;;;;;;17.77;59.32;101779.66;5012305;28;20509;-73
2023/10/10 08:39:36;;;;;;;170.27;162.27;;;;;;;17.78;59.24;101773.06;5017788;28;20034;-74
2023/10/10 08:42:10;;;;;;;168.32;160.73;;;;;;;17.78;59.08;101775.00;5012964;28;20502;-73
2023/10/10 08:44:39;;;;;;;169.57;161.55;;;;;;;17.78;59.17;101773.06;5017189;28;20029;-73
2023/10/10 08:47:19;;;;;;;170.90;162.90;;;;;;;17.79;59.26;101782.09;5063423;28;20068;-73
2023/10/10 08:49:47;;;;;;;170.25;162.02;;;;;;;17.78;59.13;101772.25;5024906;28;20077;-74
2023/10/10 08:52:16;;;;;;;173.15;165.00;;;;;;;17.78;59.27;101773.06;5012135;28;20421;-74
2023/10/10 08:54:42;;;;;;;;;;;;;;;17.78;59.60;101764.06;5017493;28;20061;-75
2023/10/10 08:57:11;;;;;;;158.45;150.88;;;;;;;17.77;59.34;101774.19;5024001;28;19979;-74
2023/10/10 08:59:42;;;;;;;168.60;160.60;;;;;;;17.78;59.19;101778.53;5044873;28;20415;-73
2023/10/10 09:02:07;;;;;;;172.25;163.75;;;;;;;17.78;59.46;101780.47;5012391;28;20042;-74
2023/10/10 09:04:33;;;;;;;170.27;162.43;;;;;;;17.79;59.10;101782.09;5029502;28;20049;-73
2023/10/10 09:07:01;;;;;;;166.35;159.25;;;;;;;17.80;59.34;101778.31;5031222;28;20061;-73
2023/10/10 09:09:34;;;;;;;172.55;164.50;;;;;;;17.79;59.14;101777.47;5032368;28;20103;-73
2023/10/10 09:12:03;;;;;;;175.60;167.27;;;;;;;17.80;59.18;101775.59;5047550;28;20080;-73
2023/10/10 09:14:41;;;;;;;167.15;159.77;;;;;;;17.81;59.19;101779.94;5012275;28;20117;-73
2023/10/10 09:17:34;;;;;;;175.77;167.82;;;;;;;17.82;59.38;101784.34;5012323;28;20433;-73
2023/10/10 09:20:18;;;;;;;165.68;157.98;;;;;;;17.81;59.68;101783.50;5013171;28;20053;-73
2023/10/10 09:22:45;;;;;;;170.02;162.05;;;;;;;17.83;59.64;101792.25;5042665;28;20057;-73
2023/10/10 09:25:31;;;;;;;171.60;163.25;;;;;;;17.85;59.43;101778.34;5027604;28;20603;-72
2023/10/10 09:28:04;;;;;;;168.40;160.77;;;;;;;17.85;59.64;101787.34;5012924;28;20041;-73
2023/10/10 09:30:32;;;;;;;174.32;165.73;;;;;;;17.86;59.52;101778.06;5021838;28;20064;-73
2023/10/10 09:33:27;;;;;;;179.75;171.23;;;;;;;17.88;59.50;101775.88;5030445;28;20099;-73
2023/10/10 09:35:58;;;;;;;170.63;163.07;;;;;;;17.90;59.80;101781.09;5030907;28;20090;-73
2023/10/10 09:38:27;;;;;;;174.60;166.38;;;;;;;17.92;59.34;101785.22;5030456;28;20037;-73
2023/10/10 09:41:14;;;;;;;172.93;164.75;;;;;;;17.93;59.91;101783.28;5020525;28;20033;-73
2023/10/10 09:49:40;;;;;;;;;;;;;;;17.96;59.77;101785.47;5012308;28;20045;-73
2023/10/10 09:55:08;;;;;;;174.77;166.23;;;;;;;17.98;59.80;101786.03;5023730;28;20037;-73
2023/10/10 09:57:39;;;;;;;174.82;166.73;;;;;;;18.01;59.71;101781.97;5035488;28;20061;-73
2023/10/10 10:00:13;;;;;;;173.95;165.90;;;;;;;18.03;59.47;101777.06;5015212;28;20068;-73
2023/10/10 10:02:48;;;;;;;172.50;164.32;;;;;;;18.06;59.79;101781.97;5044339;28;20056;-73
2023/10/10 10:05:18;;;;;;;170.52;162.65;;;;;;;18.08;59.43;101777.06;5018037;28;20064;-73
2023/10/10 10:07:58;;;;;;;176.60;168.15;;;;;;;18.11;59.94;101777.34;5011428;28;20054;-73
2023/10/10 10:10:48;;;;;;;180.50;171.15;;;;;;;18.11;59.55;101766.41;5015067;28;20037;-72
2023/10/10 10:13:40;;;;;;;173.68;165.43;;;;;;;18.12;59.47;101770.81;5024710;28;20034;-72
2023/10/10 10:16:19;;;;;;;177.05;168.40;;;;;;;18.14;59.62;101770.50;5027413;28;20048;-73
2023/10/10 10:18:47;;;;;;;184.27;175.55;;;;;;;18.16;60.04;101771.88;5015558;28;20144;-73
2023/10/10 10:21:32;;;;;;;179.10;170.73;;;;;;;18.20;59.85;101780.41;5011917;28;20034;-72
2023/10/10 10:24:15;;;;;;;183.02;174.27;;;;;;;18.23;60.07;101771.66;5011870;28;20309;-73
2023/10/10 10:26:44;;;;;;;178.45;169.88;;;;;;;18.26;59.59;101773.84;5021504;28;20382;-73
2023/10/10 10:29:28;;;;;;;179.73;171.50;;;;;;;18.29;60.08;101778.75;5011563;28;20095;-73
2023/10/10 10:31:59;;;;;;;178.02;168.93;;;;;;;18.31;59.99;101773.03;5026120;28;20367;-73
2023/10/10 10:37:06;;;;;;;181.63;172.52;;;;;;;18.37;60.51;101766.50;5026210;28;20485;-73
2023/10/10 10:39:37;;;;;;;177.35;168.82;;;;;;;18.39;60.07;101775.22;5016747;28;20564;-73
2023/10/10 10:42:12;;;;;;;177.18;168.55;;;;;;;18.41;60.33;101767.59;5020334;28;20109;-73
2023/10/10 10:44:46;;;;;;;180.82;171.98;;;;;;;18.44;60.14;101756.09;5014072;28;20371;-73
2023/10/10 10:47:38;;;;;;;175.70;167.50;;;;;;;18.45;60.52;101756.94;5020672;28;20041;-73
2023/10/10 10:50:17;;;;;;;175.10;167.15;;;;;;;18.47;60.13;101754.72;5011254;28;20061;-73
2023/10/10 10:53:05;;;;;;;182.52;173.95;;;;;;;18.48;60.49;101751.75;5039568;28;20095;-73
2023/10/10 10:55:31;;;;;;;183.00;174.07;;;;;;;18.52;60.45;101752.84;5014157;28;20080;-73
2023/10/10 10:58:08;;;;;;;186.55;177.32;;;;;;;18.54;60.17;101747.91;5014843;28;20030;-73
2023/10/10 11:03:34;;;;;;;186.10;177.45;;;;;;;18.60;60.69;101737.81;5031711;28;20169;-73
2023/10/10 11:06:07;;;;;;;186.55;177.85;;;;;;;18.62;60.72;101738.31;5014459;28;20030;-73
2023/10/10 11:14:03;;;;;;;189.15;180.48;;;;;;;18.69;60.43;101730.69;5028031;28;20513;-73
2023/10/10 11:16:39;;;;;;;190.30;181.18;;;;;;;18.72;60.67;101716.47;5017589;28;20037;-73
2023/10/10 11:22:02;;;;;;;188.50;178.88;;;;;;;18.78;60.65;101720.88;5032423;28;20114;-72
2023/10/10 11:24:29;;;;;;;191.73;182.95;;;;;;;18.80;60.88;101715.13;5015705;28;20374;-73
2023/10/10 11:27:07;;;;;;;190.35;182.00;;;;;;;18.82;60.85;101721.13;5014180;28;20108;-73
2023/10/10 11:29:48;;;;;;;196.88;187.77;;;;;;;18.83;60.57;101719.22;5021730;28;20433;-73
2023/10/10 11:32:25;;;;;;;195.68;186.65;;;;;;;18.85;60.38;101723.34;5022012;28;20056;-72
2023/10/10 11:34:52;;;;;;;192.02;183.38;;;;;;;18.87;60.69;101725.78;5038632;28;20466;-72
2023/10/10 11:37:23;;;;;;;190.98;182.27;;;;;;;18.91;60.80;101722.22;5013815;28;20042;-72
2023/10/10 11:40:31;;;;;;;195.23;185.70;;;;;;;18.96;60.76;101722.22;5026292;28;20064;-72
2023/10/10 11:43:04;;;;;;;191.95;183.20;;;;;;;18.99;60.52;101718.94;5027705;28;20462;-73
2023/10/10 11:45:40;;;;;;;199.57;190.38;;;;;;;19.06;61.18;101717.84;5024432;28;20033;-73
2023/10/10 11:48:17;;;;;;;196.07;187.15;;;;;;;19.10;60.60;101713.44;5016654;28;20029;-72
2023/10/10 11:50:46;;;;;;;195.38;186.68;;;;;;;19.13;60.51;101719.19;5013364;28;20034;-72
2023/10/10 11:53:13;;;;;;;202.05;192.93;;;;;;;19.15;60.91;101713.44;5017963;28;20057;-72
2023/10/10 11:55:41;;;;;;;196.80;188.07;;;;;;;19.16;60.83;101702.22;5022932;28;20077;-73
2023/10/10 11:58:16;;;;;;;194.32;185.50;;;;;;;19.19;60.54;101698.91;5013522;28;20061;-73
2023/10/10 12:00:43;;;;;;;197.40;188.27;;;;;;;19.23;60.73;101700.00;5013004;28;20063;-72
2023/10/10 12:03:10;;;;;;;203.38;194.07;;;;;;;19.25;60.29;101694.22;5013324;28;20030;-72
2023/10/10 12:05:36;;;;;;;202.93;193.48;;;;;;;19.26;60.02;101695.06;5029811;28;20124;-75
2023/10/10 12:08:05;;;;;;;203.75;194.57;;;;;;;19.29;60.24;101689.84;5018701;28;20121;-76
2023/10/10 12:10:52;;;;;;;201.48;192.30;;;;;;;19.33;60.19;101682.72;5013122;28;20040;-74
2023/10/10 12:15:55;;;;;;;202.27;192.82;;;;;;;19.39;60.27;101676.13;5030843;28;20044;-73
2023/10/10 12:18:21;;;;;;;203.38;194.43;;;;;;;19.41;59.92;101664.88;5026849;28;20037;-75
2023/10/10 12:20:47;;;;;;;206.15;196.38;;;;;;;19.42;59.82;101667.31;5028835;28;20102;-75
2023/10/10 12:23:13;;;;;;;211.20;202.20;;;;;;;19.46;60.07;101667.59;5032615;28;20454;-74
2023/10/10 12:25:41;;;;;;;205.73;196.93;;;;;;;19.49;59.79;101660.75;5035602;28;20037;-73
2023/10/10 12:28:18;;;;;;;214.00;204.73;;;;;;;19.54;59.35;101657.97;5033169;28;20038;-74
2023/10/10 12:30:44;;;;;;;207.27;198.40;;;;;;;19.57;59.79;101651.94;5012631;28;20037;-74
2023/10/10 12:33:13;;;;;;;205.70;196.70;;;;;;;19.60;59.50;101656.84;5024397;28;20397;-74
2023/10/10 12:35:46;;;;;;;208.27;198.98;;;;;;;19.64;59.19;101658.75;5017986;28;20224;-74
2023/10/10 12:38:15;;;;;;;209.43;200.90;;;;;;;19.69;59.08;101657.13;5060402;28;20030;-74
2023/10/10 12:40:43;;;;;;;210.40;201.55;;;;;;;19.70;58.71;101662.31;5016988;28;20405;-73
2023/10/10 12:43:11;;;;;;;210.00;200.80;;;;;;;19.74;58.99;101660.66;5027130;28;20551;-75
2023/10/10 12:45:37;;;;;;;213.05;203.43;;;;;;;19.78;58.53;101652.69;5017379;28;20042;-73
2023/10/10 12:48:04;;;;;;;212.82;203.95;;;;;;;19.82;58.65;101642.78;5024300;28;20042;-74
2023/10/10 12:50:30;;;;;;;213.63;204.82;;;;;;;19.84;58.55;101641.41;5012464;28;20041;-74
2023/10/10 12:53:07;;;;;;;217.35;208.20;;;;;;;19.87;58.37;101642.75;5026843;28;20049;-75
2023/10/10 12:55:37;;;;;;;215.65;206.43;;;;;;;19.91;57.78;101653.97;5012348;28;20109;-76
2023/10/10 12:58:15;;;;;;;217.40;207.65;;;;;;;19.93;57.66;101646.28;5038090;28;20144;-74
2023/10/10 13:00:49;;;;;;;212.55;203.75;;;;;;;19.94;57.32;101651.50;5012209;28;20038;-74
2023/10/10 13:03:15;;;;;;;212.27;203.50;;;;;;;19.97;57.38;101652.84;5012429;28;20101;-74
2023/10/10 13:05:40;;;;;;;218.57;209.23;;;;;;;19.98;57.05;101647.09;5026629;28;20196;-75
2023/10/10 13:08:06;;;;;;;221.55;212.57;;;;;;;20.02;56.19;101645.41;5027038;28;20497;-74
2023/10/10 13:10:37;;;;;;;218.35;209.10;;;;;;;20.07;55.74;101645.38;5011823;28;20057;-75
2023/10/10 13:13:03;;;;;;;220.95;211.45;;;;;;;20.10;55.50;101642.06;5019902;28;20037;-74
2023/10/10 13:15:30;;;;;;;225.32;215.73;;;;;;;20.15;55.18;101645.88;5020568;28;20048;-74
2023/10/10 13:20:43;;;;;;;220.40;211.30;;;;;;;20.23;54.72;101634.28;5021527;28;20049;-74
2023/10/10 13:23:09;;;;;;;226.82;216.80;;;;;;;20.26;54.89;101639.19;5014121;28;20044;-73
2023/10/10 13:25:37;;;;;;;229.95;220.63;;;;;;;20.29;54.54;101633.16;5033237;28;20041;-73
2023/10/10 13:28:09;;;;;;;223.82;214.52;;;;;;;20.33;54.07;101636.94;5013325;28;20034;-75
2023/10/10 13:30:41;;;;;;;223.00;213.80;;;;;;;20.39;54.07;101640.50;5019473;28;20037;-75
2023/10/10 13:33:07;;;;;;;225.57;216.15;;;;;;;20.41;53.57;101633.63;5012245;28;20359;-74
2023/10/10 13:35:37;;;;;;;234.85;225.32;;;;;;;20.45;53.47;101636.59;5012387;28;20030;-74
2023/10/10 13:38:03;;;;;;;222.95;213.73;;;;;;;20.49;53.40;101640.41;5017443;28;20061;-74
2023/10/10 13:40:37;;;;;;;227.73;218.60;;;;;;;20.51;53.32;101638.16;5017795;28;20041;-74
2023/10/10 13:43:18;;;;;;;232.35;222.75;;;;;;;20.55;53.39;101633.78;5013812;28;20037;-74
2023/10/10 13:45:45;;;;;;;233.10;223.40;;;;;;;20.58;52.79;101635.13;5019486;28;20030;-74
2023/10/10 13:48:13;;;;;;;230.93;221.40;;;;;;;20.59;52.66;101623.88;5050916;28;20040;-75
2023/10/10 13:50:42;;;;;;;231.48;222.07;;;;;;;20.62;52.38;101627.97;5044071;28;20103;-74
2023/10/10 13:53:11;;;;;;;;;;;;;;;20.64;52.63;101632.06;5019664;28;20033;-73
2023/10/10 13:55:38;;;;;;;218.32;208.88;;;;;;;20.67;52.30;101628.72;5031770;28;20349;-74
2023/10/10 13:58:07;;;;;;;228.30;219.05;;;;;;;20.70;52.10;101628.16;5030057;28;20026;-74
2023/10/10 14:00:35;;;;;;;;;;;;;;;20.74;52.03;101622.91;5011996;28;20041;-74
2023/10/10 14:03:03;;;;;;;219.55;210.57;;;;;;;20.76;52.39;101623.41;5029530;28;19954;-74
2023/10/10 14:05:30;;;;;;;226.82;217.60;;;;;;;20.80;51.92;101618.19;5031242;28;20033;-74
2023/10/10 14:07:56;;;;;;;227.57;218.18;;;;;;;20.83;51.92;101620.34;5034514;28;20059;-74
2023/10/10 14:10:21;;;;;;;232.32;222.35;;;;;;;20.84;52.23;101617.31;5018016;28;20030;-73
2023/10/10 14:12:48;;;;;;;230.77;220.98;;;;;;;20.85;52.03;101618.94;5022954;28;20038;-74
2023/10/10 14:15:15;;;;;;;232.07;222.48;;;;;;;20.87;52.01;101610.44;5031128;28;20083;-73
2023/10/10 14:17:40;;;;;;;234.73;225.20;;;;;;;20.87;51.98;101613.16;5030844;28;20029;-74